createdAt,value
2018-08-30T00:02:47.389Z,101481.50
2018-08-30T00:05:46.622Z,101473.06
2018-08-30T00:08:45.516Z,101475.88
2018-08-30T00:11:44.720Z,101467.92
2018-08-30T00:14:43.613Z,101465.71
2018-08-30T00:17:42.873Z,101455.17
2018-08-30T00:20:41.913Z,101454.55
2018-08-30T00:23:41.091Z,101459.94
2018-08-30T00:26:39.198Z,101460.94
2018-08-30T00:29:37.463Z,101454.30
2018-08-30T00:32:35.334Z,101455.17
2018-08-30T00:35:33.330Z,101453.81
2018-08-30T00:38:31.600Z,101442.69
2018-08-30T00:41:30.647Z,101451.75
2018-08-30T00:44:28.500Z,101453.96
2018-08-30T00:47:29.814Z,101449.05
2018-08-30T00:50:28.003Z,101443.77
2018-08-30T00:53:27.257Z,101441.58
2018-08-30T00:56:26.270Z,101438.89
2018-08-30T00:59:24.641Z,101437.54
2018-08-30T01:02:23.773Z,101436.67
2018-08-30T01:05:21.866Z,101431.77
2018-08-30T01:08:20.049Z,101433.12
2018-08-30T01:11:18.712Z,101426.86
2018-08-30T01:14:16.594Z,101429.56
2018-08-30T01:17:15.689Z,101423.44
2018-08-30T01:20:14.522Z,101418.05
2018-08-30T01:23:12.634Z,101426.13
2018-08-30T01:26:11.597Z,101422.58
2018-08-30T01:29:09.745Z,101422.58
2018-08-30T01:32:10.387Z,101423.58
2018-08-30T01:35:08.534Z,101421.85
2018-08-30T01:38:06.641Z,101412.41
2018-08-30T01:41:04.982Z,101414.73
2018-08-30T01:44:04.001Z,101416.08
2018-08-30T01:47:02.475Z,101427.73
2018-08-30T01:50:02.415Z,101418.05
2018-08-30T01:53:00.878Z,101420.27
2018-08-30T01:55:59.783Z,101414.01
2018-08-30T01:58:58.842Z,101410.45
2018-08-30T02:01:57.791Z,101399.80
2018-08-30T02:04:55.984Z,101399.32
2018-08-30T02:07:53.966Z,101402.02
2018-08-30T02:10:52.326Z,101402.50
2018-08-30T02:13:50.110Z,101396.70
2018-08-30T02:16:48.202Z,101397.97
2018-08-30T02:19:46.612Z,101393.52
2018-08-30T02:22:44.869Z,101385.43
2018-08-30T02:25:43.009Z,101376.48
2018-08-30T02:28:42.214Z,101381.88
2018-08-30T02:31:41.151Z,101380.52
2018-08-30T02:34:40.452Z,101374.64
2018-08-30T02:37:38.584Z,101372.95
2018-08-30T02:40:36.875Z,101374.30
2018-08-30T02:43:35.972Z,101372.95
2018-08-30T02:46:34.092Z,101371.61
2018-08-30T02:49:31.949Z,101370.26
2018-08-30T02:52:30.180Z,101373.44
2018-08-30T02:55:28.400Z,101371.61
2018-08-30T02:58:27.910Z,101371.09
2018-08-30T03:01:25.928Z,101362.06
2018-08-30T03:04:25.265Z,101358.13
2018-08-30T03:07:23.146Z,101359.48
2018-08-30T03:10:21.384Z,101358.95
2018-08-30T03:13:19.165Z,101358.95
2018-08-30T03:16:17.448Z,101358.95
2018-08-30T03:19:15.461Z,101354.09
2018-08-30T03:22:13.665Z,101363.00
2018-08-30T03:25:12.926Z,101357.27
2018-08-30T03:28:11.250Z,101364.48
2018-08-30T03:31:09.105Z,101362.28
2018-08-30T03:34:08.533Z,101357.86
2018-08-30T03:37:07.836Z,101368.30
2018-08-30T03:40:07.107Z,101375.89
2018-08-30T03:43:06.937Z,101376.37
2018-08-30T03:46:05.379Z,101370.13
2018-08-30T03:49:03.479Z,101362.52
2018-08-30T03:52:01.654Z,101357.62
2018-08-30T03:54:59.885Z,101355.44
2018-08-30T03:57:59.142Z,101358.48
2018-08-30T04:00:57.035Z,101351.02
2018-08-30T04:03:56.303Z,101355.06
2018-08-30T04:06:54.197Z,101355.92
2018-08-30T04:09:53.497Z,101349.19
2018-08-30T04:12:51.524Z,101348.70
2018-08-30T04:15:49.867Z,101347.35
2018-08-30T04:18:48.478Z,101341.58
2018-08-30T04:21:47.281Z,101353.58
2018-08-30T04:24:46.969Z,101353.58
2018-08-30T04:27:46.067Z,101348.56
2018-08-30T04:30:44.264Z,101349.53
2018-08-30T04:33:43.053Z,101352.12
2018-08-30T04:36:41.069Z,101349.42
2018-08-30T04:39:40.302Z,101344.89
2018-08-30T04:42:38.308Z,101345.38
2018-08-30T04:45:36.884Z,101352.47
2018-08-30T04:48:36.059Z,101357.86
2018-08-30T04:51:34.541Z,101355.16
2018-08-30T04:54:33.464Z,101352.47
2018-08-30T04:57:31.577Z,101349.77
2018-08-30T05:00:30.720Z,101351.49
2018-08-30T05:03:29.050Z,101342.55
2018-08-30T05:06:27.196Z,101338.50
2018-08-30T05:09:26.391Z,101340.72
2018-08-30T05:12:25.685Z,101335.81
2018-08-30T05:15:23.528Z,101343.41
2018-08-30T05:18:22.457Z,101337.64
2018-08-30T05:21:20.719Z,101328.58
2018-08-30T05:24:18.545Z,101326.75
2018-08-30T05:27:16.680Z,101324.54
2018-08-30T05:30:14.869Z,101317.94
2018-08-30T05:33:13.798Z,101322.81
2018-08-30T05:36:11.810Z,101325.02
2018-08-30T05:39:11.360Z,101323.67
2018-08-30T05:42:11.074Z,101326.86
2018-08-30T05:45:09.242Z,101328.20
2018-08-30T05:48:07.205Z,101326.52
2018-08-30T05:51:10.577Z,101328.20
2018-08-30T05:54:09.830Z,101330.07
2018-08-30T05:57:08.505Z,101332.39
2018-08-30T06:00:07.247Z,101329.20
2018-08-30T06:03:06.723Z,101320.26
2018-08-30T06:06:04.525Z,101324.30
2018-08-30T06:09:02.873Z,101326.52
2018-08-30T06:12:00.847Z,101322.47
2018-08-30T06:14:58.973Z,101331.91
2018-08-30T06:17:57.073Z,101328.83
2018-08-30T06:20:55.441Z,101324.78
2018-08-30T06:23:53.489Z,101322.09
2018-08-30T06:26:52.862Z,101322.95
2018-08-30T06:29:50.666Z,101325.27
2018-08-30T06:32:48.734Z,101324.30
2018-08-30T06:35:46.894Z,101323.33
2018-08-30T06:38:46.039Z,101323.33
2018-08-30T06:41:44.209Z,101323.67
2018-08-30T06:44:42.537Z,101325.41
2018-08-30T06:47:40.501Z,101331.66
2018-08-30T06:50:38.548Z,101322.22
2018-08-30T06:53:36.371Z,101323.08
2018-08-30T06:56:34.602Z,101321.73
2018-08-30T06:59:32.513Z,101326.61
2018-08-30T07:02:30.578Z,101322.56
2018-08-30T07:05:29.595Z,101324.32
2018-08-30T07:08:28.841Z,101321.63
2018-08-30T07:11:26.874Z,101322.00
2018-08-30T07:14:26.475Z,101317.96
2018-08-30T07:17:25.592Z,101318.45
2018-08-30T07:20:24.627Z,101316.61
2018-08-30T07:23:23.072Z,101319.66
2018-08-30T07:26:21.574Z,101318.79
2018-08-30T07:29:19.723Z,101316.95
2018-08-30T07:32:18.279Z,101312.91
2018-08-30T07:35:16.381Z,101315.13
2018-08-30T07:38:14.494Z,101303.86
2018-08-30T07:41:12.408Z,101308.87
2018-08-30T07:44:11.583Z,101302.51
2018-08-30T07:47:09.725Z,101306.55
2018-08-30T07:50:08.848Z,101301.64
2018-08-30T07:53:06.766Z,101304.72
2018-08-30T07:56:05.937Z,101302.02
2018-08-30T07:59:04.109Z,101302.02
2018-08-30T08:02:03.162Z,101299.33
2018-08-30T08:05:03.427Z,101307.27
2018-08-30T08:08:02.667Z,101307.76
2018-08-30T08:11:00.675Z,101306.30
2018-08-30T08:13:59.941Z,101307.27
2018-08-30T08:16:58.783Z,101311.69
2018-08-30T08:19:56.756Z,101304.58
2018-08-30T08:22:56.160Z,101306.30
2018-08-30T08:25:55.220Z,101303.61
2018-08-30T08:28:53.429Z,101300.91
2018-08-30T08:31:52.562Z,101292.06
2018-08-30T08:34:50.905Z,101294.02
2018-08-30T08:37:49.393Z,101291.70
2018-08-30T08:40:48.038Z,101295.75
2018-08-30T08:43:46.247Z,101292.91
2018-08-30T08:46:44.163Z,101289.73
2018-08-30T08:49:43.258Z,101291.31
2018-08-30T08:52:41.469Z,101289.97
2018-08-30T08:55:40.019Z,101286.30
2018-08-30T08:58:38.821Z,101283.94
2018-08-30T09:01:37.964Z,101293.75
2018-08-30T09:04:35.683Z,101292.41
2018-08-30T09:07:34.701Z,101292.41
2018-08-30T09:10:33.449Z,101298.66
2018-08-30T09:13:32.673Z,101289.57
2018-08-30T09:16:31.677Z,101290.05
2018-08-30T09:19:29.654Z,101290.92
2018-08-30T09:22:27.783Z,101299.01
2018-08-30T09:25:26.384Z,101289.57
2018-08-30T09:28:25.278Z,101299.88
2018-08-30T09:31:23.233Z,101286.88
2018-08-30T09:34:22.300Z,101291.41
2018-08-30T09:37:22.507Z,101288.22
2018-08-30T09:40:20.789Z,101299.88
2018-08-30T09:43:19.100Z,101296.80
2018-08-30T09:46:18.478Z,101285.67
2018-08-30T09:49:18.135Z,101287.02
2018-08-30T09:52:16.368Z,101290.83
2018-08-30T09:55:15.559Z,101283.94
2018-08-30T09:58:13.518Z,101291.31
2018-08-30T10:01:17.893Z,101295.47
2018-08-30T10:04:17.071Z,101294.12
2018-08-30T10:07:16.153Z,101288.38
2018-08-30T10:10:15.074Z,101294.26
2018-08-30T10:13:13.837Z,101289.24
2018-08-30T10:16:12.215Z,101288.38
2018-08-30T10:19:10.411Z,101288.88
2018-08-30T10:22:10.035Z,101285.80
2018-08-30T10:25:08.003Z,101293.40
2018-08-30T10:28:06.962Z,101293.55
2018-08-30T10:31:06.211Z,101298.93
2018-08-30T10:34:04.283Z,101294.89
2018-08-30T10:37:03.479Z,101294.02
2018-08-30T10:40:02.792Z,101293.16
2018-08-30T10:43:01.366Z,101295.86
2018-08-30T10:46:00.357Z,101302.12
2018-08-30T10:48:59.379Z,101297.59
2018-08-30T10:51:58.475Z,101293.16
2018-08-30T10:54:56.426Z,101296.23
2018-08-30T10:57:55.435Z,101295.38
2018-08-30T11:00:55.475Z,101294.89
2018-08-30T11:03:54.564Z,101297.93
2018-08-30T11:06:53.735Z,101299.28
2018-08-30T11:09:51.877Z,101292.54
2018-08-30T11:12:49.865Z,101291.56
2018-08-30T11:15:48.694Z,101301.00
2018-08-30T11:18:47.764Z,101292.91
2018-08-30T11:21:46.098Z,101293.77
2018-08-30T11:24:44.314Z,101297.34
2018-08-30T11:27:42.207Z,101295.61
2018-08-30T11:30:40.288Z,101296.81
2018-08-30T11:33:38.523Z,101293.29
2018-08-30T11:36:37.625Z,101299.52
2018-08-30T11:39:35.739Z,101292.77
2018-08-30T11:42:33.911Z,101290.08
2018-08-30T11:45:31.677Z,101291.42
2018-08-30T11:48:31.104Z,101295.47
2018-08-30T11:51:29.031Z,101293.29
2018-08-30T11:54:27.413Z,101293.63
2018-08-30T11:57:27.608Z,101301.23
2018-08-30T12:00:33.711Z,101302.20
2018-08-30T12:03:33.811Z,101300.38
2018-08-30T12:06:32.046Z,101296.81
2018-08-30T12:09:30.062Z,101291.42
2018-08-30T12:12:28.364Z,101296.33
2018-08-30T12:15:26.422Z,101291.94
2018-08-30T12:18:24.793Z,101287.52
2018-08-30T12:21:23.714Z,101287.52
2018-08-30T12:24:22.912Z,101292.91
2018-08-30T12:27:21.989Z,101261.10
2018-08-30T12:30:21.069Z,101296.58
2018-08-30T12:33:20.009Z,101294.41
2018-08-30T12:36:17.996Z,101294.41
2018-08-30T12:39:16.921Z,101292.68
2018-08-30T12:42:16.518Z,101291.33
2018-08-30T12:45:16.322Z,101296.23
2018-08-30T12:48:15.612Z,101294.52
2018-08-30T12:51:13.582Z,101295.52
2018-08-30T12:54:12.776Z,101289.27
2018-08-30T12:57:10.805Z,101278.48
2018-08-30T13:00:10.360Z,101287.05
2018-08-30T13:03:08.397Z,101287.54
2018-08-30T13:06:06.934Z,101286.19
2018-08-30T13:09:05.970Z,101284.98
2018-08-30T13:12:06.298Z,101280.56
2018-08-30T13:15:04.390Z,101283.64
2018-08-30T13:18:03.791Z,101286.19
2018-08-30T13:21:02.971Z,101292.06
2018-08-30T13:24:02.038Z,101283.15
2018-08-30T13:27:02.285Z,101293.94
2018-08-30T13:30:00.648Z,101290.72
2018-08-30T13:32:58.667Z,101284.84
2018-08-30T13:35:57.040Z,101291.72
2018-08-30T13:38:56.211Z,101287.54
2018-08-30T13:41:54.902Z,101292.45
2018-08-30T13:44:53.637Z,101289.27
2018-08-30T13:47:52.567Z,101283.50
2018-08-30T13:50:51.491Z,101287.43
2018-08-30T13:53:50.530Z,101281.17
2018-08-30T13:56:50.525Z,101283.01
2018-08-30T13:59:49.079Z,101282.87
2018-08-30T14:02:48.639Z,101285.08
2018-08-30T14:05:47.780Z,101285.22
2018-08-30T14:08:46.756Z,101283.88
2018-08-30T14:11:46.011Z,101281.17
2018-08-30T14:18:47.702Z,101281.28
2018-08-30T14:21:46.781Z,101290.00
2018-08-30T14:24:46.199Z,101285.47
2018-08-30T14:27:44.484Z,101280.08
2018-08-30T14:30:43.737Z,101283.26
2018-08-30T14:33:41.771Z,101294.53
2018-08-30T14:36:41.130Z,101287.30
2018-08-30T14:39:40.170Z,101296.73
2018-08-30T14:42:38.226Z,101292.84
2018-08-30T14:45:36.216Z,101288.31
2018-08-30T14:48:35.524Z,101289.66
2018-08-30T14:51:34.370Z,101290.14
2018-08-30T14:54:32.711Z,101291.97
2018-08-30T14:57:32.716Z,101294.19
2018-08-30T15:00:30.885Z,101294.67
2018-08-30T15:03:29.993Z,101300.92
2018-08-30T15:06:28.950Z,101296.47
2018-08-30T15:09:27.178Z,101304.11
2018-08-30T15:12:25.774Z,101309.95
2018-08-30T15:15:23.854Z,101303.69
2018-08-30T15:18:23.343Z,101313.99
2018-08-30T15:21:21.259Z,101311.78
2018-08-30T15:24:20.551Z,101315.00
2018-08-30T15:27:20.705Z,101314.13
2018-08-30T15:30:19.322Z,101312.78
2018-08-30T15:33:18.466Z,101311.44
2018-08-30T15:36:17.740Z,101313.64
2018-08-30T15:39:18.447Z,101315.83
2018-08-30T15:42:17.716Z,101319.04
2018-08-30T15:45:16.375Z,101314.62
2018-08-30T15:48:15.588Z,101314.13
2018-08-30T15:51:14.887Z,101315.00
2018-08-30T15:54:13.880Z,101316.34
2018-08-30T15:57:13.185Z,101311.55
2018-08-30T16:00:12.287Z,101318.17
2018-08-30T16:03:11.687Z,101310.95
2018-08-30T16:06:10.991Z,101315.83
2018-08-30T16:09:09.063Z,101318.52
2018-08-30T16:12:08.333Z,101311.44
2018-08-30T16:15:07.061Z,101315.00
2018-08-30T16:18:05.075Z,101316.34
2018-08-30T16:21:03.388Z,101320.01
2018-08-30T16:24:01.601Z,101318.52
2018-08-30T16:27:00.704Z,101319.52
2018-08-30T16:30:00.213Z,101328.95
2018-08-30T16:32:58.203Z,101325.78
2018-08-30T16:35:56.576Z,101324.54
2018-08-30T16:38:55.482Z,101322.22
2018-08-30T16:41:53.625Z,101329.82
2018-08-30T16:44:52.638Z,101333.86
2018-08-30T16:47:50.821Z,101326.75
2018-08-30T16:50:49.112Z,101330.80
2018-08-30T16:53:47.419Z,101331.28
2018-08-30T16:56:46.484Z,101341.20
2018-08-30T16:59:46.608Z,101338.50
2018-08-30T17:02:44.677Z,101336.81
2018-08-30T17:05:43.790Z,101338.64
2018-08-30T17:08:42.779Z,101337.78
2018-08-30T17:11:41.167Z,101343.17
2018-08-30T17:14:40.732Z,101345.48
2018-08-30T17:17:40.096Z,101345.14
2018-08-30T17:21:13.388Z,101344.77
2018-08-30T17:24:12.929Z,101349.30
2018-08-30T17:27:12.901Z,101351.64
2018-08-30T17:30:11.952Z,101358.00
2018-08-30T17:33:10.238Z,101353.61
2018-08-30T17:36:08.580Z,101362.53
2018-08-30T17:39:07.607Z,101365.74
2018-08-30T17:42:06.801Z,101365.36
2018-08-30T17:45:06.091Z,101368.55
2018-08-30T17:48:05.086Z,101364.02
2018-08-30T17:51:05.354Z,101370.38
2018-08-30T17:54:05.743Z,101373.45
2018-08-30T17:57:04.428Z,101372.24
2018-08-30T18:00:04.764Z,101371.72
2018-08-30T18:03:02.729Z,101374.08
2018-08-30T18:06:01.557Z,101378.47
2018-08-30T18:08:59.539Z,101378.47
2018-08-30T18:11:57.782Z,101382.02
2018-08-30T18:14:56.414Z,101383.75
2018-08-30T18:17:55.917Z,101392.32
2018-08-30T18:20:54.806Z,101396.36
2018-08-30T18:23:55.137Z,101399.05
2018-08-30T18:26:54.099Z,101404.93
2018-08-30T18:29:54.121Z,101400.41
2018-08-30T18:32:53.504Z,101401.27
2018-08-30T18:35:52.631Z,101407.52
2018-08-30T18:38:52.256Z,101412.91
2018-08-30T18:41:51.569Z,101409.35
2018-08-30T18:44:50.645Z,101410.56
2018-08-30T18:47:49.042Z,101412.39
2018-08-30T18:50:47.005Z,101415.61
2018-08-30T18:53:46.216Z,101413.74
2018-08-30T18:56:45.268Z,101417.30
2018-08-30T18:59:44.375Z,101417.78
2018-08-30T19:02:43.507Z,101424.04
2018-08-30T19:05:42.090Z,101421.83
2018-08-30T19:08:41.374Z,101425.88
2018-08-30T19:11:39.520Z,101420.62
2018-08-30T19:14:37.653Z,101422.83
2018-08-30T19:17:42.053Z,101421.10
2018-08-30T19:20:40.989Z,101429.67
2018-08-30T19:23:39.016Z,101427.49
2018-08-30T19:26:38.127Z,101425.77
2018-08-30T19:29:37.366Z,101421.72
2018-08-30T19:32:37.358Z,101411.43
2018-08-30T19:35:41.498Z,101405.69
2018-08-30T19:38:40.686Z,101404.83
2018-08-30T19:41:39.082Z,101414.26
2018-08-30T19:44:36.856Z,101414.36
2018-08-30T19:47:36.357Z,101426.49
2018-08-30T19:50:35.499Z,101435.44
2018-08-30T19:53:34.954Z,101439.97
2018-08-30T19:56:33.591Z,101441.31
2018-08-30T19:59:32.860Z,101439.97
2018-08-30T20:02:30.979Z,101438.27
2018-08-30T20:05:30.291Z,101438.62
2018-08-30T20:08:28.512Z,101439.63
2018-08-30T20:11:26.810Z,101429.33
2018-08-30T20:14:25.161Z,101431.53
2018-08-30T20:17:23.389Z,101434.58
2018-08-30T20:20:21.595Z,101431.02
2018-08-30T20:23:19.601Z,101432.27
2018-08-30T20:26:18.860Z,101437.66
2018-08-30T20:29:17.736Z,101434.95
2018-08-30T20:32:15.653Z,101445.59
2018-08-30T20:35:14.573Z,101438.03
2018-08-30T20:38:12.430Z,101445.11
2018-08-30T20:41:10.586Z,101433.85
2018-08-30T20:44:09.089Z,101443.15
2018-08-30T20:47:07.014Z,101440.11
2018-08-30T20:50:06.201Z,101448.05
2018-08-30T20:53:05.388Z,101450.27
2018-08-30T20:56:04.592Z,101449.78
2018-08-30T20:59:02.696Z,101441.21
2018-08-30T21:02:00.911Z,101445.60
2018-08-30T21:04:59.048Z,101446.95
2018-08-30T21:07:57.144Z,101446.95
2018-08-30T21:10:55.319Z,101456.28
2018-08-30T21:13:53.263Z,101463.02
2018-08-30T21:16:51.473Z,101467.06
2018-08-30T21:19:52.659Z,101465.58
2018-08-30T21:22:50.827Z,101470.48
2018-08-30T21:25:49.036Z,101468.27
2018-08-30T21:28:48.204Z,101468.27
2018-08-30T21:31:46.289Z,101471.34
2018-08-30T21:34:45.389Z,101465.95
2018-08-30T21:37:43.564Z,101464.09
2018-08-30T21:40:41.667Z,101468.66
2018-08-30T21:43:39.843Z,101462.74
2018-08-30T21:46:37.964Z,101460.56
2018-08-30T21:49:37.232Z,101462.40
2018-08-30T21:52:35.571Z,101455.66
2018-08-30T21:55:34.848Z,101461.91
2018-08-30T21:58:32.796Z,101464.61
2018-08-30T22:01:31.279Z,101460.19
2018-08-30T22:04:30.318Z,101464.23
2018-08-30T22:07:28.388Z,101463.74
2018-08-30T22:10:26.349Z,101464.71
2018-08-30T22:13:24.553Z,101463.36
2018-08-30T22:16:22.670Z,101474.15
2018-08-30T22:19:20.715Z,101468.75
2018-08-30T22:22:19.924Z,101465.20
2018-08-30T22:25:18.148Z,101460.80
2018-08-30T22:28:16.334Z,101463.50
2018-08-30T22:31:14.779Z,101467.16
2018-08-30T22:34:12.544Z,101464.95
2018-08-30T22:37:10.786Z,101458.22
2018-08-30T22:40:09.943Z,101459.56
2018-08-30T22:43:08.343Z,101461.42
2018-08-30T22:46:06.188Z,101460.56
2018-08-30T22:49:04.240Z,101466.30
2018-08-30T22:52:02.499Z,101465.47
2018-08-30T22:55:01.676Z,101464.13
2018-08-30T22:57:59.635Z,101464.13
2018-08-30T23:00:57.991Z,101456.87
2018-08-30T23:03:57.036Z,101460.91
2018-08-30T23:06:55.021Z,101459.94
2018-08-30T23:09:53.213Z,101464.95
2018-08-30T23:12:51.448Z,101464.47
2018-08-30T23:15:50.254Z,101465.81
2018-08-30T23:18:49.497Z,101469.38
2018-08-30T23:21:47.641Z,101463.50
2018-08-30T23:24:45.986Z,101466.69
2018-08-30T23:27:44.928Z,101458.22
2018-08-30T23:30:44.081Z,101459.08
2018-08-30T23:33:43.016Z,101462.64
2018-08-30T23:36:42.303Z,101463.13
2018-08-30T23:39:40.265Z,101464.47
2018-08-30T23:42:39.434Z,101459.08
2018-08-30T23:45:37.499Z,101454.69
2018-08-30T23:48:35.677Z,101449.64
2018-08-30T23:51:34.748Z,101448.78
2018-08-30T23:54:33.022Z,101447.95
2018-08-30T23:57:31.826Z,101444.88
